sensor_id;sensor_type;location;lat;lon;timestamp;P1;durP1;ratioP1;P2;durP2;ratioP2
18917;SDS011;9591;52.742;13.650;2022-09-20T00:01:24;3.07;;;1.50;;
18917;SDS011;9591;52.742;13.650;2022-09-20T00:04:14;1.50;;;1.40;;
18917;SDS011;9591;52.742;13.650;2022-09-20T00:07:01;2.50;;;1.80;;
18917;SDS011;9591;52.742;13.650;2022-09-20T00:09:48;6.93;;;1.40;;
18917;SDS011;9591;52.742;13.650;2022-09-20T00:12:35;6.30;;;1.70;;
18917;SDS011;9591;52.742;13.650;2022-09-20T00:15:21;42.57;;;2.90;;
18917;SDS011;9591;52.742;13.650;2022-09-20T00:18:09;9.30;;;1.80;;
18917;SDS011;9591;52.742;13.650;2022-09-20T00:20:57;5.90;;;1.67;;
18917;SDS011;9591;52.742;13.650;2022-09-20T00:23:44;100.10;;;4.37;;
18917;SDS011;9591;52.742;13.650;2022-09-20T00:26:31;6.03;;;1.60;;
18917;SDS011;9591;52.742;13.650;2022-09-20T00:29:18;5.30;;;1.80;;
18917;SDS011;9591;52.742;13.650;2022-09-20T00:32:05;97.50;;;5.47;;
18917;SDS011;9591;52.742;13.650;2022-09-20T00:34:52;6.10;;;1.67;;
18917;SDS011;9591;52.742;13.650;2022-09-20T00:38:02;2.37;;;1.57;;
18917;SDS011;9591;52.742;13.650;2022-09-20T00:40:49;1.33;;;1.33;;
18917;SDS011;9591;52.742;13.650;2022-09-20T00:43:37;15.93;;;1.93;;
18917;SDS011;9591;52.742;13.650;2022-09-20T00:46:25;3.70;;;1.70;;
18917;SDS011;9591;52.742;13.650;2022-09-20T00:49:14;3.77;;;1.40;;
18917;SDS011;9591;52.742;13.650;2022-09-20T00:52:05;3.03;;;1.43;;
18917;SDS011;9591;52.742;13.650;2022-09-20T00:54:53;1.93;;;1.50;;
18917;SDS011;9591;52.742;13.650;2022-09-20T00:57:41;1.37;;;1.33;;
18917;SDS011;9591;52.742;13.650;2022-09-20T01:00:29;7.40;;;1.60;;
18917;SDS011;9591;52.742;13.650;2022-09-20T01:03:16;1.27;;;1.10;;
18917;SDS011;9591;52.742;13.650;2022-09-20T01:06:08;2.47;;;1.73;;
18917;SDS011;9591;52.742;13.650;2022-09-20T01:08:58;6.37;;;1.30;;
18917;SDS011;9591;52.742;13.650;2022-09-20T01:11:49;5.43;;;1.47;;
18917;SDS011;9591;52.742;13.650;2022-09-20T01:14:39;6.37;;;1.37;;
18917;SDS011;9591;52.742;13.650;2022-09-20T01:17:30;2.57;;;1.70;;
18917;SDS011;9591;52.742;13.650;2022-09-20T01:20:21;6.30;;;1.40;;
18917;SDS011;9591;52.742;13.650;2022-09-20T01:23:14;7.23;;;1.40;;
18917;SDS011;9591;52.742;13.650;2022-09-20T01:26:15;2.70;;;1.30;;
18917;SDS011;9591;52.742;13.650;2022-09-20T01:29:20;5.17;;;1.27;;
18917;SDS011;9591;52.742;13.650;2022-09-20T01:32:19;1.40;;;1.30;;
18917;SDS011;9591;52.742;13.650;2022-09-20T01:35:11;1.30;;;1.30;;
18917;SDS011;9591;52.742;13.650;2022-09-20T01:38:10;1.13;;;1.10;;
18917;SDS011;9591;52.742;13.650;2022-09-20T01:41:07;3.63;;;1.27;;
18917;SDS011;9591;52.742;13.650;2022-09-20T01:43:58;2.53;;;1.40;;
18917;SDS011;9591;52.742;13.650;2022-09-20T01:46:55;1.17;;;1.17;;
18917;SDS011;9591;52.742;13.650;2022-09-20T01:49:48;1.60;;;1.50;;
18917;SDS011;9591;52.742;13.650;2022-09-20T01:53:04;3.87;;;1.40;;
18917;SDS011;9591;52.742;13.650;2022-09-20T01:56:18;1.50;;;1.40;;
18917;SDS011;9591;52.742;13.650;2022-09-20T01:59:30;4.43;;;1.37;;
18917;SDS011;9591;52.742;13.650;2022-09-20T02:09:40;1.20;;;1.20;;
18917;SDS011;9591;52.742;13.650;2022-09-20T02:12:55;2.23;;;2.00;;
18917;SDS011;9591;52.742;13.650;2022-09-20T02:15:58;6.80;;;2.03;;
18917;SDS011;9591;52.742;13.650;2022-09-20T02:19:09;5.33;;;1.30;;
18917;SDS011;9591;52.742;13.650;2022-09-20T02:22:35;1.87;;;1.40;;
18917;SDS011;9591;52.742;13.650;2022-09-20T02:28:50;2.07;;;1.33;;
18917;SDS011;9591;52.742;13.650;2022-09-20T02:35:09;2.90;;;1.30;;
18917;SDS011;9591;52.742;13.650;2022-09-20T02:38:17;2.23;;;1.47;;
18917;SDS011;9591;52.742;13.650;2022-09-20T02:44:35;9.30;;;1.50;;
18917;SDS011;9591;52.742;13.650;2022-09-20T02:47:32;4.83;;;1.83;;
18917;SDS011;9591;52.742;13.650;2022-09-20T02:50:25;1.43;;;1.20;;
18917;SDS011;9591;52.742;13.650;2022-09-20T02:53:22;2.03;;;1.47;;
18917;SDS011;9591;52.742;13.650;2022-09-20T02:56:21;12.30;;;1.53;;
18917;SDS011;9591;52.742;13.650;2022-09-20T02:59:18;1.20;;;1.10;;
18917;SDS011;9591;52.742;13.650;2022-09-20T03:02:14;1.50;;;1.40;;
18917;SDS011;9591;52.742;13.650;2022-09-20T03:05:10;2.07;;;1.40;;
18917;SDS011;9591;52.742;13.650;2022-09-20T03:08:10;8.70;;;1.40;;
18917;SDS011;9591;52.742;13.650;2022-09-20T03:11:09;7.57;;;1.73;;
18917;SDS011;9591;52.742;13.650;2022-09-20T03:14:12;1.60;;;1.50;;
18917;SDS011;9591;52.742;13.650;2022-09-20T03:17:11;1.60;;;1.20;;
18917;SDS011;9591;52.742;13.650;2022-09-20T03:20:07;1.23;;;1.20;;
18917;SDS011;9591;52.742;13.650;2022-09-20T03:23:24;2.13;;;1.60;;
18917;SDS011;9591;52.742;13.650;2022-09-20T03:26:29;7.10;;;1.60;;
18917;SDS011;9591;52.742;13.650;2022-09-20T03:29:30;1.87;;;1.50;;
18917;SDS011;9591;52.742;13.650;2022-09-20T03:32:30;1.37;;;1.30;;
18917;SDS011;9591;52.742;13.650;2022-09-20T03:35:33;5.90;;;1.30;;
18917;SDS011;9591;52.742;13.650;2022-09-20T03:38:35;2.07;;;1.27;;
18917;SDS011;9591;52.742;13.650;2022-09-20T03:41:34;2.60;;;1.60;;
18917;SDS011;9591;52.742;13.650;2022-09-20T03:44:39;3.57;;;1.37;;
18917;SDS011;9591;52.742;13.650;2022-09-20T03:51:17;1.53;;;1.43;;
18917;SDS011;9591;52.742;13.650;2022-09-20T03:54:32;1.40;;;1.30;;
18917;SDS011;9591;52.742;13.650;2022-09-20T03:57:54;2.77;;;1.97;;
18917;SDS011;9591;52.742;13.650;2022-09-20T04:00:57;1.83;;;1.50;;
18917;SDS011;9591;52.742;13.650;2022-09-20T04:03:55;4.27;;;1.30;;
18917;SDS011;9591;52.742;13.650;2022-09-20T04:07:02;3.73;;;1.40;;
18917;SDS011;9591;52.742;13.650;2022-09-20T04:10:05;3.50;;;1.70;;
18917;SDS011;9591;52.742;13.650;2022-09-20T04:13:06;3.40;;;1.60;;
18917;SDS011;9591;52.742;13.650;2022-09-20T04:16:17;2.87;;;1.60;;
18917;SDS011;9591;52.742;13.650;2022-09-20T04:19:15;2.70;;;1.80;;
18917;SDS011;9591;52.742;13.650;2022-09-20T04:22:16;1.77;;;1.60;;
18917;SDS011;9591;52.742;13.650;2022-09-20T04:25:11;1.50;;;1.40;;
18917;SDS011;9591;52.742;13.650;2022-09-20T04:28:05;2.80;;;1.40;;
18917;SDS011;9591;52.742;13.650;2022-09-20T04:31:01;2.87;;;1.67;;
18917;SDS011;9591;52.742;13.650;2022-09-20T04:33:56;3.67;;;1.57;;
18917;SDS011;9591;52.742;13.650;2022-09-20T04:36:57;28.87;;;3.27;;
18917;SDS011;9591;52.742;13.650;2022-09-20T04:39:48;2.10;;;1.60;;
18917;SDS011;9591;52.742;13.650;2022-09-20T04:46:33;2.80;;;1.67;;
18917;SDS011;9591;52.742;13.650;2022-09-20T04:53:07;3.90;;;1.60;;
18917;SDS011;9591;52.742;13.650;2022-09-20T04:56:19;6.10;;;2.00;;
18917;SDS011;9591;52.742;13.650;2022-09-20T04:59:09;3.40;;;1.60;;
18917;SDS011;9591;52.742;13.650;2022-09-20T05:05:36;3.27;;;1.80;;
18917;SDS011;9591;52.742;13.650;2022-09-20T05:12:00;3.83;;;1.53;;
18917;SDS011;9591;52.742;13.650;2022-09-20T05:21:59;3.27;;;1.70;;
18917;SDS011;9591;52.742;13.650;2022-09-20T05:25:26;4.60;;;1.97;;
18917;SDS011;9591;52.742;13.650;2022-09-20T05:28:28;1.67;;;1.57;;
18917;SDS011;9591;52.742;13.650;2022-09-20T05:31:23;5.40;;;1.53;;
18917;SDS011;9591;52.742;13.650;2022-09-20T05:34:18;1.87;;;1.37;;
18917;SDS011;9591;52.742;13.650;2022-09-20T05:37:15;8.23;;;1.40;;
18917;SDS011;9591;52.742;13.650;2022-09-20T05:40:16;3.13;;;1.53;;
18917;SDS011;9591;52.742;13.650;2022-09-20T05:43:11;1.63;;;1.53;;
18917;SDS011;9591;52.742;13.650;2022-09-20T05:46:09;1.30;;;1.20;;
18917;SDS011;9591;52.742;13.650;2022-09-20T05:49:08;2.93;;;1.57;;
18917;SDS011;9591;52.742;13.650;2022-09-20T05:52:10;2.40;;;1.47;;
18917;SDS011;9591;52.742;13.650;2022-09-20T05:55:19;1.30;;;1.20;;
18917;SDS011;9591;52.742;13.650;2022-09-20T05:58:21;1.40;;;1.30;;
18917;SDS011;9591;52.742;13.650;2022-09-20T06:01:22;1.80;;;1.40;;
18917;SDS011;9591;52.742;13.650;2022-09-20T06:04:13;1.93;;;1.40;;
18917;SDS011;9591;52.742;13.650;2022-09-20T06:07:06;1.97;;;1.60;;
18917;SDS011;9591;52.742;13.650;2022-09-20T06:13:40;3.70;;;1.60;;
18917;SDS011;9591;52.742;13.650;2022-09-20T06:16:39;3.13;;;1.60;;
18917;SDS011;9591;52.742;13.650;2022-09-20T06:19:35;2.13;;;1.37;;
18917;SDS011;9591;52.742;13.650;2022-09-20T06:22:27;2.23;;;1.47;;
18917;SDS011;9591;52.742;13.650;2022-09-20T06:25:19;1.43;;;1.33;;
18917;SDS011;9591;52.742;13.650;2022-09-20T06:28:11;3.03;;;1.20;;
18917;SDS011;9591;52.742;13.650;2022-09-20T06:31:01;1.30;;;1.20;;
18917;SDS011;9591;52.742;13.650;2022-09-20T06:33:52;1.43;;;1.27;;
18917;SDS011;9591;52.742;13.650;2022-09-20T06:36:44;3.40;;;1.40;;
18917;SDS011;9591;52.742;13.650;2022-09-20T06:39:55;2.10;;;1.17;;
18917;SDS011;9591;52.742;13.650;2022-09-20T06:43:09;1.67;;;1.57;;
18917;SDS011;9591;52.742;13.650;2022-09-20T06:45:58;1.47;;;1.37;;
18917;SDS011;9591;52.742;13.650;2022-09-20T06:48:45;4.77;;;1.30;;
18917;SDS011;9591;52.742;13.650;2022-09-20T06:51:32;3.93;;;1.20;;
18917;SDS011;9591;52.742;13.650;2022-09-20T06:54:21;4.73;;;1.23;;
18917;SDS011;9591;52.742;13.650;2022-09-20T06:57:08;1.30;;;1.20;;
18917;SDS011;9591;52.742;13.650;2022-09-20T06:59:56;3.53;;;1.20;;
18917;SDS011;9591;52.742;13.650;2022-09-20T07:02:43;7.53;;;1.37;;
18917;SDS011;9591;52.742;13.650;2022-09-20T07:05:30;1.63;;;1.00;;
18917;SDS011;9591;52.742;13.650;2022-09-20T07:08:17;1.40;;;1.30;;
18917;SDS011;9591;52.742;13.650;2022-09-20T07:11:06;2.33;;;1.43;;
18917;SDS011;9591;52.742;13.650;2022-09-20T07:13:55;1.40;;;1.30;;
18917;SDS011;9591;52.742;13.650;2022-09-20T07:16:43;2.67;;;1.40;;
18917;SDS011;9591;52.742;13.650;2022-09-20T07:19:30;3.03;;;1.33;;
18917;SDS011;9591;52.742;13.650;2022-09-20T07:22:16;1.20;;;1.10;;
18917;SDS011;9591;52.742;13.650;2022-09-20T07:25:04;1.43;;;1.33;;
18917;SDS011;9591;52.742;13.650;2022-09-20T07:27:52;8.47;;;1.90;;
18917;SDS011;9591;52.742;13.650;2022-09-20T07:30:39;3.47;;;1.20;;
18917;SDS011;9591;52.742;13.650;2022-09-20T07:33:26;2.07;;;1.47;;
18917;SDS011;9591;52.742;13.650;2022-09-20T07:36:13;1.20;;;1.10;;
18917;SDS011;9591;52.742;13.650;2022-09-20T07:39:00;1.47;;;1.30;;
18917;SDS011;9591;52.742;13.650;2022-09-20T07:41:47;1.97;;;1.20;;
18917;SDS011;9591;52.742;13.650;2022-09-20T07:44:35;1.23;;;1.20;;
18917;SDS011;9591;52.742;13.650;2022-09-20T07:47:26;4.70;;;1.60;;
18917;SDS011;9591;52.742;13.650;2022-09-20T07:50:13;3.07;;;1.30;;
18917;SDS011;9591;52.742;13.650;2022-09-20T07:52:59;1.73;;;1.63;;
18917;SDS011;9591;52.742;13.650;2022-09-20T07:55:56;6.63;;;1.87;;
18917;SDS011;9591;52.742;13.650;2022-09-20T07:58:45;3.47;;;1.40;;
18917;SDS011;9591;52.742;13.650;2022-09-20T08:01:37;6.17;;;1.30;;
18917;SDS011;9591;52.742;13.650;2022-09-20T08:04:25;3.37;;;1.40;;
18917;SDS011;9591;52.742;13.650;2022-09-20T08:07:12;6.07;;;1.80;;
18917;SDS011;9591;52.742;13.650;2022-09-20T08:09:59;1.83;;;1.30;;
18917;SDS011;9591;52.742;13.650;2022-09-20T08:12:46;1.50;;;1.40;;
18917;SDS011;9591;52.742;13.650;2022-09-20T08:15:59;2.83;;;1.10;;
18917;SDS011;9591;52.742;13.650;2022-09-20T08:18:49;3.83;;;1.60;;
18917;SDS011;9591;52.742;13.650;2022-09-20T08:21:37;1.30;;;1.20;;
18917;SDS011;9591;52.742;13.650;2022-09-20T08:24:23;2.37;;;1.23;;
18917;SDS011;9591;52.742;13.650;2022-09-20T08:27:11;1.90;;;1.10;;
18917;SDS011;9591;52.742;13.650;2022-09-20T08:29:58;1.47;;;1.07;;
18917;SDS011;9591;52.742;13.650;2022-09-20T08:32:45;3.87;;;1.60;;
18917;SDS011;9591;52.742;13.650;2022-09-20T08:35:35;1.80;;;1.20;;
18917;SDS011;9591;52.742;13.650;2022-09-20T08:38:22;2.07;;;1.07;;
18917;SDS011;9591;52.742;13.650;2022-09-20T08:41:32;3.60;;;1.20;;
18917;SDS011;9591;52.742;13.650;2022-09-20T08:44:23;1.00;;;1.00;;
18917;SDS011;9591;52.742;13.650;2022-09-20T08:47:14;5.80;;;1.30;;
18917;SDS011;9591;52.742;13.650;2022-09-20T08:50:05;1.00;;;1.00;;
18917;SDS011;9591;52.742;13.650;2022-09-20T08:52:56;4.97;;;1.30;;
18917;SDS011;9591;52.742;13.650;2022-09-20T08:55:49;1.20;;;1.10;;
18917;SDS011;9591;52.742;13.650;2022-09-20T08:58:36;3.60;;;1.00;;
18917;SDS011;9591;52.742;13.650;2022-09-20T09:01:23;2.27;;;1.00;;
18917;SDS011;9591;52.742;13.650;2022-09-20T09:04:14;3.10;;;1.00;;
18917;SDS011;9591;52.742;13.650;2022-09-20T09:07:02;2.17;;;1.10;;
18917;SDS011;9591;52.742;13.650;2022-09-20T09:09:53;1.80;;;1.10;;
18917;SDS011;9591;52.742;13.650;2022-09-20T09:12:42;4.43;;;0.90;;
18917;SDS011;9591;52.742;13.650;2022-09-20T09:15:33;6.30;;;0.90;;
18917;SDS011;9591;52.742;13.650;2022-09-20T09:18:23;0.93;;;0.93;;
18917;SDS011;9591;52.742;13.650;2022-09-20T09:21:17;1.13;;;1.03;;
18917;SDS011;9591;52.742;13.650;2022-09-20T09:24:06;1.10;;;0.70;;
18917;SDS011;9591;52.742;13.650;2022-09-20T09:27:12;1.63;;;0.80;;
18917;SDS011;9591;52.742;13.650;2022-09-20T09:30:00;1.93;;;0.67;;
18917;SDS011;9591;52.742;13.650;2022-09-20T09:32:47;1.80;;;0.90;;
18917;SDS011;9591;52.742;13.650;2022-09-20T09:35:34;0.97;;;0.90;;
18917;SDS011;9591;52.742;13.650;2022-09-20T09:38:22;1.00;;;0.67;;
18917;SDS011;9591;52.742;13.650;2022-09-20T09:41:20;3.77;;;0.83;;
18917;SDS011;9591;52.742;13.650;2022-09-20T09:44:21;1.43;;;0.60;;
18917;SDS011;9591;52.742;13.650;2022-09-20T09:47:22;3.30;;;0.70;;
18917;SDS011;9591;52.742;13.650;2022-09-20T09:50:21;0.57;;;0.57;;
18917;SDS011;9591;52.742;13.650;2022-09-20T09:53:22;1.07;;;0.70;;
18917;SDS011;9591;52.742;13.650;2022-09-20T09:56:26;1.73;;;0.70;;
18917;SDS011;9591;52.742;13.650;2022-09-20T09:59:37;0.60;;;0.53;;
18917;SDS011;9591;52.742;13.650;2022-09-20T10:02:45;2.20;;;0.70;;
18917;SDS011;9591;52.742;13.650;2022-09-20T10:06:07;1.70;;;0.60;;
18917;SDS011;9591;52.742;13.650;2022-09-20T10:09:14;2.93;;;0.77;;
18917;SDS011;9591;52.742;13.650;2022-09-20T10:12:21;3.60;;;1.70;;
18917;SDS011;9591;52.742;13.650;2022-09-20T10:15:23;0.80;;;0.77;;
18917;SDS011;9591;52.742;13.650;2022-09-20T10:18:22;0.80;;;0.70;;
18917;SDS011;9591;52.742;13.650;2022-09-20T10:21:28;0.83;;;0.60;;
18917;SDS011;9591;52.742;13.650;2022-09-20T10:24:28;2.37;;;0.70;;
18917;SDS011;9591;52.742;13.650;2022-09-20T10:27:27;3.40;;;0.60;;
18917;SDS011;9591;52.742;13.650;2022-09-20T10:30:28;3.30;;;0.80;;
18917;SDS011;9591;52.742;13.650;2022-09-20T10:33:27;3.13;;;0.70;;
18917;SDS011;9591;52.742;13.650;2022-09-20T10:36:22;0.70;;;0.70;;
18917;SDS011;9591;52.742;13.650;2022-09-20T10:39:16;0.73;;;0.53;;
18917;SDS011;9591;52.742;13.650;2022-09-20T10:42:13;1.03;;;0.60;;
18917;SDS011;9591;52.742;13.650;2022-09-20T10:45:38;0.47;;;0.47;;
18917;SDS011;9591;52.742;13.650;2022-09-20T10:49:03;0.40;;;0.40;;
18917;SDS011;9591;52.742;13.650;2022-09-20T10:52:04;1.40;;;0.40;;
18917;SDS011;9591;52.742;13.650;2022-09-20T10:55:10;3.23;;;0.67;;
18917;SDS011;9591;52.742;13.650;2022-09-20T10:58:40;1.80;;;1.17;;
18917;SDS011;9591;52.742;13.650;2022-09-20T11:01:40;1.90;;;0.70;;
18917;SDS011;9591;52.742;13.650;2022-09-20T11:04:46;0.60;;;0.60;;
18917;SDS011;9591;52.742;13.650;2022-09-20T11:07:46;0.53;;;0.53;;
18917;SDS011;9591;52.742;13.650;2022-09-20T11:10:41;1.50;;;0.50;;
18917;SDS011;9591;52.742;13.650;2022-09-20T11:13:32;0.73;;;0.70;;
18917;SDS011;9591;52.742;13.650;2022-09-20T11:16:25;0.87;;;0.60;;
18917;SDS011;9591;52.742;13.650;2022-09-20T11:19:21;1.70;;;0.73;;
18917;SDS011;9591;52.742;13.650;2022-09-20T11:22:17;0.77;;;0.50;;
18917;SDS011;9591;52.742;13.650;2022-09-20T11:25:11;1.23;;;0.70;;
18917;SDS011;9591;52.742;13.650;2022-09-20T11:28:08;0.50;;;0.50;;
18917;SDS011;9591;52.742;13.650;2022-09-20T11:31:01;0.40;;;0.40;;
18917;SDS011;9591;52.742;13.650;2022-09-20T11:33:53;2.43;;;0.60;;
18917;SDS011;9591;52.742;13.650;2022-09-20T11:36:47;2.37;;;0.50;;
18917;SDS011;9591;52.742;13.650;2022-09-20T11:39:42;1.33;;;0.57;;
18917;SDS011;9591;52.742;13.650;2022-09-20T11:42:34;0.60;;;0.60;;
18917;SDS011;9591;52.742;13.650;2022-09-20T11:45:25;0.53;;;0.53;;
18917;SDS011;9591;52.742;13.650;2022-09-20T11:48:15;2.00;;;0.70;;
18917;SDS011;9591;52.742;13.650;2022-09-20T11:51:19;1.83;;;0.90;;
18917;SDS011;9591;52.742;13.650;2022-09-20T11:57:58;3.00;;;0.60;;
18917;SDS011;9591;52.742;13.650;2022-09-20T12:00:47;1.50;;;0.70;;
18917;SDS011;9591;52.742;13.650;2022-09-20T12:03:38;0.60;;;0.60;;
18917;SDS011;9591;52.742;13.650;2022-09-20T12:06:29;4.23;;;0.90;;
18917;SDS011;9591;52.742;13.650;2022-09-20T12:09:23;0.83;;;0.50;;
18917;SDS011;9591;52.742;13.650;2022-09-20T12:12:14;1.23;;;0.60;;
18917;SDS011;9591;52.742;13.650;2022-09-20T12:15:21;0.67;;;0.67;;
18917;SDS011;9591;52.742;13.650;2022-09-20T12:21:22;0.70;;;0.70;;
18917;SDS011;9591;52.742;13.650;2022-09-20T12:24:16;2.53;;;0.80;;
18917;SDS011;9591;52.742;13.650;2022-09-20T12:27:20;1.30;;;0.70;;
18917;SDS011;9591;52.742;13.650;2022-09-20T12:30:28;2.53;;;0.80;;
18917;SDS011;9591;52.742;13.650;2022-09-20T12:33:18;4.90;;;1.00;;
18917;SDS011;9591;52.742;13.650;2022-09-20T12:39:14;1.47;;;1.10;;
18917;SDS011;9591;52.742;13.650;2022-09-20T12:42:21;5.53;;;1.00;;
18917;SDS011;9591;52.742;13.650;2022-09-20T12:45:14;3.37;;;1.37;;
18917;SDS011;9591;52.742;13.650;2022-09-20T12:48:03;1.10;;;1.00;;
18917;SDS011;9591;52.742;13.650;2022-09-20T12:50:59;2.07;;;1.13;;
18917;SDS011;9591;52.742;13.650;2022-09-20T12:54:06;2.30;;;1.23;;
18917;SDS011;9591;52.742;13.650;2022-09-20T12:56:55;5.63;;;1.43;;
18917;SDS011;9591;52.742;13.650;2022-09-20T13:00:05;1.17;;;1.07;;
18917;SDS011;9591;52.742;13.650;2022-09-20T13:02:58;3.63;;;1.10;;
18917;SDS011;9591;52.742;13.650;2022-09-20T13:05:45;0.90;;;0.90;;
18917;SDS011;9591;52.742;13.650;2022-09-20T13:08:38;1.10;;;1.00;;
18917;SDS011;9591;52.742;13.650;2022-09-20T13:11:28;0.90;;;0.90;;
18917;SDS011;9591;52.742;13.650;2022-09-20T13:14:19;2.10;;;0.80;;
18917;SDS011;9591;52.742;13.650;2022-09-20T13:17:15;1.03;;;0.70;;
18917;SDS011;9591;52.742;13.650;2022-09-20T13:20:13;0.73;;;0.57;;
18917;SDS011;9591;52.742;13.650;2022-09-20T13:23:03;0.67;;;0.60;;
18917;SDS011;9591;52.742;13.650;2022-09-20T13:25:50;0.60;;;0.60;;
18917;SDS011;9591;52.742;13.650;2022-09-20T13:28:39;2.07;;;0.50;;
18917;SDS011;9591;52.742;13.650;2022-09-20T13:31:32;3.50;;;0.73;;
18917;SDS011;9591;52.742;13.650;2022-09-20T13:34:22;2.00;;;0.80;;
18917;SDS011;9591;52.742;13.650;2022-09-20T13:37:15;0.47;;;0.47;;
18917;SDS011;9591;52.742;13.650;2022-09-20T13:40:05;0.60;;;0.60;;
18917;SDS011;9591;52.742;13.650;2022-09-20T13:42:52;1.80;;;0.50;;
18917;SDS011;9591;52.742;13.650;2022-09-20T13:46:07;0.60;;;0.60;;
18917;SDS011;9591;52.742;13.650;2022-09-20T13:49:11;0.87;;;0.63;;
18917;SDS011;9591;52.742;13.650;2022-09-20T13:52:11;2.10;;;0.67;;
18917;SDS011;9591;52.742;13.650;2022-09-20T13:55:18;3.63;;;0.77;;
18917;SDS011;9591;52.742;13.650;2022-09-20T13:58:16;0.50;;;0.50;;
18917;SDS011;9591;52.742;13.650;2022-09-20T14:01:06;0.60;;;0.60;;
18917;SDS011;9591;52.742;13.650;2022-09-20T14:04:12;2.73;;;0.77;;
18917;SDS011;9591;52.742;13.650;2022-09-20T14:07:02;0.60;;;0.60;;
18917;SDS011;9591;52.742;13.650;2022-09-20T14:09:54;3.40;;;0.50;;
18917;SDS011;9591;52.742;13.650;2022-09-20T14:12:42;0.50;;;0.50;;
18917;SDS011;9591;52.742;13.650;2022-09-20T14:15:31;2.00;;;0.50;;
18917;SDS011;9591;52.742;13.650;2022-09-20T14:18:21;1.33;;;0.50;;
18917;SDS011;9591;52.742;13.650;2022-09-20T14:21:09;1.20;;;0.70;;
18917;SDS011;9591;52.742;13.650;2022-09-20T14:23:57;4.03;;;0.67;;
18917;SDS011;9591;52.742;13.650;2022-09-20T14:26:59;1.27;;;0.60;;
18917;SDS011;9591;52.742;13.650;2022-09-20T14:29:49;2.10;;;0.80;;
18917;SDS011;9591;52.742;13.650;2022-09-20T14:32:38;1.47;;;0.77;;
18917;SDS011;9591;52.742;13.650;2022-09-20T14:35:29;2.63;;;0.70;;
18917;SDS011;9591;52.742;13.650;2022-09-20T14:38:17;3.40;;;0.80;;
18917;SDS011;9591;52.742;13.650;2022-09-20T14:41:08;0.50;;;0.50;;
18917;SDS011;9591;52.742;13.650;2022-09-20T14:43:57;0.43;;;0.43;;
18917;SDS011;9591;52.742;13.650;2022-09-20T14:46:46;0.60;;;0.60;;
18917;SDS011;9591;52.742;13.650;2022-09-20T14:49:33;0.50;;;0.50;;
18917;SDS011;9591;52.742;13.650;2022-09-20T14:52:34;0.93;;;0.60;;
18917;SDS011;9591;52.742;13.650;2022-09-20T14:55:23;0.50;;;0.50;;
18917;SDS011;9591;52.742;13.650;2022-09-20T14:58:13;0.40;;;0.40;;
18917;SDS011;9591;52.742;13.650;2022-09-20T15:01:03;0.40;;;0.40;;
18917;SDS011;9591;52.742;13.650;2022-09-20T15:04:08;0.60;;;0.60;;
18917;SDS011;9591;52.742;13.650;2022-09-20T15:07:05;0.40;;;0.40;;
18917;SDS011;9591;52.742;13.650;2022-09-20T15:09:55;0.50;;;0.50;;
18917;SDS011;9591;52.742;13.650;2022-09-20T15:12:42;0.40;;;0.40;;
18917;SDS011;9591;52.742;13.650;2022-09-20T15:15:29;0.60;;;0.60;;
18917;SDS011;9591;52.742;13.650;2022-09-20T15:18:19;0.60;;;0.60;;
18917;SDS011;9591;52.742;13.650;2022-09-20T15:21:07;2.67;;;0.70;;
18917;SDS011;9591;52.742;13.650;2022-09-20T15:23:54;0.50;;;0.50;;
18917;SDS011;9591;52.742;13.650;2022-09-20T15:26:41;0.87;;;0.60;;
18917;SDS011;9591;52.742;13.650;2022-09-20T15:29:29;0.73;;;0.50;;
18917;SDS011;9591;52.742;13.650;2022-09-20T15:32:15;1.97;;;0.60;;
18917;SDS011;9591;52.742;13.650;2022-09-20T15:35:04;2.40;;;0.80;;
18917;SDS011;9591;52.742;13.650;2022-09-20T15:37:52;1.70;;;0.70;;
18917;SDS011;9591;52.742;13.650;2022-09-20T15:40:39;3.40;;;0.90;;
18917;SDS011;9591;52.742;13.650;2022-09-20T15:43:26;0.60;;;0.60;;
18917;SDS011;9591;52.742;13.650;2022-09-20T15:46:16;4.93;;;0.70;;
18917;SDS011;9591;52.742;13.650;2022-09-20T15:49:04;0.70;;;0.70;;
18917;SDS011;9591;52.742;13.650;2022-09-20T15:51:54;2.63;;;1.87;;
18917;SDS011;9591;52.742;13.650;2022-09-20T15:54:41;1.63;;;0.60;;
18917;SDS011;9591;52.742;13.650;2022-09-20T15:57:28;0.73;;;0.73;;
18917;SDS011;9591;52.742;13.650;2022-09-20T16:00:15;0.80;;;0.80;;
18917;SDS011;9591;52.742;13.650;2022-09-20T16:03:03;1.63;;;0.90;;
18917;SDS011;9591;52.742;13.650;2022-09-20T16:05:56;2.10;;;1.00;;
18917;SDS011;9591;52.742;13.650;2022-09-20T16:08:49;4.73;;;0.80;;
18917;SDS011;9591;52.742;13.650;2022-09-20T16:11:37;0.80;;;0.80;;
18917;SDS011;9591;52.742;13.650;2022-09-20T16:14:24;2.60;;;0.90;;
18917;SDS011;9591;52.742;13.650;2022-09-20T16:17:11;2.33;;;0.90;;
18917;SDS011;9591;52.742;13.650;2022-09-20T16:19:57;0.70;;;0.70;;
18917;SDS011;9591;52.742;13.650;2022-09-20T16:22:43;3.33;;;0.70;;
18917;SDS011;9591;52.742;13.650;2022-09-20T16:25:32;2.43;;;0.90;;
18917;SDS011;9591;52.742;13.650;2022-09-20T16:28:19;0.77;;;0.77;;
18917;SDS011;9591;52.742;13.650;2022-09-20T16:31:15;0.83;;;0.77;;
18917;SDS011;9591;52.742;13.650;2022-09-20T16:34:15;2.13;;;0.70;;
18917;SDS011;9591;52.742;13.650;2022-09-20T16:37:04;2.23;;;0.80;;
18917;SDS011;9591;52.742;13.650;2022-09-20T16:39:53;1.37;;;1.10;;
18917;SDS011;9591;52.742;13.650;2022-09-20T16:42:42;0.90;;;0.90;;
18917;SDS011;9591;52.742;13.650;2022-09-20T16:45:36;1.53;;;0.93;;
18917;SDS011;9591;52.742;13.650;2022-09-20T16:48:23;2.43;;;1.30;;
18917;SDS011;9591;52.742;13.650;2022-09-20T16:51:15;1.53;;;1.00;;
18917;SDS011;9591;52.742;13.650;2022-09-20T16:54:02;0.90;;;0.90;;
18917;SDS011;9591;52.742;13.650;2022-09-20T16:56:50;2.60;;;1.00;;
18917;SDS011;9591;52.742;13.650;2022-09-20T16:59:39;3.33;;;1.27;;
18917;SDS011;9591;52.742;13.650;2022-09-20T17:02:26;2.10;;;1.50;;
18917;SDS011;9591;52.742;13.650;2022-09-20T17:05:12;5.80;;;1.87;;
18917;SDS011;9591;52.742;13.650;2022-09-20T17:07:59;4.07;;;1.90;;
18917;SDS011;9591;52.742;13.650;2022-09-20T17:10:46;3.10;;;1.60;;
18917;SDS011;9591;52.742;13.650;2022-09-20T17:13:33;4.00;;;1.40;;
18917;SDS011;9591;52.742;13.650;2022-09-20T17:16:23;3.77;;;1.50;;
18917;SDS011;9591;52.742;13.650;2022-09-20T17:19:12;3.60;;;1.50;;
18917;SDS011;9591;52.742;13.650;2022-09-20T17:22:00;1.47;;;1.37;;
18917;SDS011;9591;52.742;13.650;2022-09-20T17:24:47;1.93;;;1.40;;
18917;SDS011;9591;52.742;13.650;2022-09-20T17:27:34;1.97;;;1.40;;
18917;SDS011;9591;52.742;13.650;2022-09-20T17:30:24;3.73;;;1.40;;
18917;SDS011;9591;52.742;13.650;2022-09-20T17:33:12;1.50;;;1.40;;
18917;SDS011;9591;52.742;13.650;2022-09-20T17:35:59;1.53;;;1.43;;
18917;SDS011;9591;52.742;13.650;2022-09-20T17:38:51;1.50;;;1.40;;
18917;SDS011;9591;52.742;13.650;2022-09-20T17:41:39;1.40;;;1.30;;
18917;SDS011;9591;52.742;13.650;2022-09-20T17:44:26;2.60;;;1.50;;
18917;SDS011;9591;52.742;13.650;2022-09-20T17:47:13;1.60;;;1.50;;
18917;SDS011;9591;52.742;13.650;2022-09-20T17:50:03;4.27;;;1.57;;
18917;SDS011;9591;52.742;13.650;2022-09-20T17:52:51;1.20;;;1.10;;
18917;SDS011;9591;52.742;13.650;2022-09-20T17:55:37;2.63;;;1.17;;
18917;SDS011;9591;52.742;13.650;2022-09-20T17:58:24;2.43;;;1.30;;
18917;SDS011;9591;52.742;13.650;2022-09-20T18:01:13;1.40;;;1.30;;
18917;SDS011;9591;52.742;13.650;2022-09-20T18:04:02;1.97;;;1.40;;
18917;SDS011;9591;52.742;13.650;2022-09-20T18:06:53;2.23;;;1.40;;
18917;SDS011;9591;52.742;13.650;2022-09-20T18:09:49;6.13;;;1.80;;
18917;SDS011;9591;52.742;13.650;2022-09-20T18:12:36;1.80;;;1.70;;
18917;SDS011;9591;52.742;13.650;2022-09-20T18:15:23;3.97;;;1.57;;
18917;SDS011;9591;52.742;13.650;2022-09-20T18:18:10;3.97;;;1.37;;
18917;SDS011;9591;52.742;13.650;2022-09-20T18:20:57;1.73;;;1.60;;
18917;SDS011;9591;52.742;13.650;2022-09-20T18:23:47;3.50;;;1.50;;
18917;SDS011;9591;52.742;13.650;2022-09-20T18:26:35;5.30;;;1.60;;